sensor_id;sensor_type;location;lat;lon;timestamp;P1;durP1;ratioP1;P2;durP2;ratioP2
3231;SDS011;1628;48.884;9.210;2022-07-12T04:01:40;2.83;;;2.60;;
3231;SDS011;1628;48.884;9.210;2022-07-12T04:04:08;2.53;;;2.43;;
3231;SDS011;1628;48.884;9.210;2022-07-12T04:06:34;2.90;;;2.43;;
3231;SDS011;1628;48.884;9.210;2022-07-12T04:09:01;2.97;;;2.47;;
3231;SDS011;1628;48.884;9.210;2022-07-12T04:11:29;2.90;;;2.70;;
3231;SDS011;1628;48.884;9.210;2022-07-12T04:13:55;2.93;;;2.73;;
3231;SDS011;1628;48.884;9.210;2022-07-12T04:16:22;3.00;;;2.80;;
3231;SDS011;1628;48.884;9.210;2022-07-12T04:18:50;4.67;;;2.70;;
3231;SDS011;1628;48.884;9.210;2022-07-12T04:21:17;3.03;;;2.93;;
3231;SDS011;1628;48.884;9.210;2022-07-12T04:23:44;2.77;;;2.67;;
3231;SDS011;1628;48.884;9.210;2022-07-12T04:26:10;3.30;;;2.63;;
3231;SDS011;1628;48.884;9.210;2022-07-12T04:28:37;2.70;;;2.60;;
3231;SDS011;1628;48.884;9.210;2022-07-12T04:31:04;4.00;;;3.80;;
3231;SDS011;1628;48.884;9.210;2022-07-12T04:33:31;2.70;;;2.50;;
3231;SDS011;1628;48.884;9.210;2022-07-12T04:35:59;3.27;;;3.07;;
3231;SDS011;1628;48.884;9.210;2022-07-12T04:38:26;4.10;;;2.70;;
3231;SDS011;1628;48.884;9.210;2022-07-12T04:40:53;4.00;;;3.07;;
3231;SDS011;1628;48.884;9.210;2022-07-12T04:43:20;2.90;;;2.70;;
3231;SDS011;1628;48.884;9.210;2022-07-12T04:45:49;3.37;;;3.07;;
3231;SDS011;1628;48.884;9.210;2022-07-12T04:48:16;3.93;;;3.63;;
3231;SDS011;1628;48.884;9.210;2022-07-12T04:50:42;3.47;;;3.17;;
3231;SDS011;1628;48.884;9.210;2022-07-12T04:53:11;3.17;;;3.00;;
3231;SDS011;1628;48.884;9.210;2022-07-12T04:55:37;3.17;;;2.93;;
3231;SDS011;1628;48.884;9.210;2022-07-12T04:58:04;3.37;;;3.07;;
3231;SDS011;1628;48.884;9.210;2022-07-12T05:00:31;4.53;;;3.27;;
3231;SDS011;1628;48.884;9.210;2022-07-12T05:02:58;3.07;;;2.87;;
3231;SDS011;1628;48.884;9.210;2022-07-12T05:05:24;3.07;;;2.73;;
3231;SDS011;1628;48.884;9.210;2022-07-12T05:07:51;3.47;;;3.27;;
3231;SDS011;1628;48.884;9.210;2022-07-12T05:10:19;3.37;;;3.07;;
3231;SDS011;1628;48.884;9.210;2022-07-12T05:12:46;4.03;;;3.53;;
3231;SDS011;1628;48.884;9.210;2022-07-12T05:15:13;3.50;;;3.30;;
3231;SDS011;1628;48.884;9.210;2022-07-12T05:17:40;3.90;;;3.37;;
3231;SDS011;1628;48.884;9.210;2022-07-12T05:20:07;3.70;;;3.50;;
3231;SDS011;1628;48.884;9.210;2022-07-12T05:22:34;3.60;;;3.40;;
3231;SDS011;1628;48.884;9.210;2022-07-12T05:25:02;3.57;;;3.37;;
3231;SDS011;1628;48.884;9.210;2022-07-12T05:27:31;4.57;;;4.20;;
3231;SDS011;1628;48.884;9.210;2022-07-12T05:29:58;3.13;;;3.03;;
3231;SDS011;1628;48.884;9.210;2022-07-12T05:32:24;3.93;;;3.73;;
3231;SDS011;1628;48.884;9.210;2022-07-12T05:34:51;4.33;;;3.60;;
3231;SDS011;1628;48.884;9.210;2022-07-12T05:37:18;4.23;;;3.93;;
3231;SDS011;1628;48.884;9.210;2022-07-12T05:39:45;4.27;;;3.87;;
3231;SDS011;1628;48.884;9.210;2022-07-12T05:42:12;4.80;;;4.40;;
3231;SDS011;1628;48.884;9.210;2022-07-12T05:44:40;4.40;;;4.10;;
3231;SDS011;1628;48.884;9.210;2022-07-12T05:47:06;4.87;;;4.57;;
3231;SDS011;1628;48.884;9.210;2022-07-12T05:49:33;4.83;;;4.53;;
3231;SDS011;1628;48.884;9.210;2022-07-12T05:52:00;5.20;;;4.90;;
3231;SDS011;1628;48.884;9.210;2022-07-12T05:54:46;5.07;;;4.10;;
3231;SDS011;1628;48.884;9.210;2022-07-12T05:57:13;4.47;;;4.07;;
3231;SDS011;1628;48.884;9.210;2022-07-12T05:59:41;3.80;;;3.60;;
3231;SDS011;1628;48.884;9.210;2022-07-12T06:02:09;5.10;;;3.90;;
3231;SDS011;1628;48.884;9.210;2022-07-12T06:04:35;3.33;;;3.13;;
3231;SDS011;1628;48.884;9.210;2022-07-12T06:07:03;3.87;;;3.50;;
3231;SDS011;1628;48.884;9.210;2022-07-12T06:09:30;4.70;;;3.77;;
3231;SDS011;1628;48.884;9.210;2022-07-12T06:11:57;6.90;;;3.67;;
3231;SDS011;1628;48.884;9.210;2022-07-12T06:14:23;3.40;;;3.10;;
3231;SDS011;1628;48.884;9.210;2022-07-12T06:16:52;7.10;;;2.90;;
3231;SDS011;1628;48.884;9.210;2022-07-12T06:19:18;2.37;;;2.17;;
3231;SDS011;1628;48.884;9.210;2022-07-12T06:21:45;2.17;;;2.03;;
3231;SDS011;1628;48.884;9.210;2022-07-12T06:24:12;3.50;;;2.40;;
3231;SDS011;1628;48.884;9.210;2022-07-12T06:26:39;2.23;;;2.13;;
3231;SDS011;1628;48.884;9.210;2022-07-12T06:29:06;4.37;;;2.30;;
3231;SDS011;1628;48.884;9.210;2022-07-12T06:31:34;1.83;;;1.30;;
3231;SDS011;1628;48.884;9.210;2022-07-12T06:34:02;3.00;;;2.07;;
3231;SDS011;1628;48.884;9.210;2022-07-12T06:36:28;2.80;;;2.10;;
3231;SDS011;1628;48.884;9.210;2022-07-12T06:38:55;2.20;;;2.10;;
3231;SDS011;1628;48.884;9.210;2022-07-12T06:41:22;1.80;;;1.70;;
3231;SDS011;1628;48.884;9.210;2022-07-12T06:43:49;2.20;;;2.10;;
3231;SDS011;1628;48.884;9.210;2022-07-12T06:46:16;1.73;;;1.63;;
3231;SDS011;1628;48.884;9.210;2022-07-12T06:48:43;3.33;;;1.70;;
3231;SDS011;1628;48.884;9.210;2022-07-12T06:51:11;3.03;;;1.70;;
3231;SDS011;1628;48.884;9.210;2022-07-12T06:53:38;4.83;;;1.30;;
3231;SDS011;1628;48.884;9.210;2022-07-12T06:56:04;2.97;;;1.43;;
3231;SDS011;1628;48.884;9.210;2022-07-12T06:58:31;1.20;;;1.20;;
3231;SDS011;1628;48.884;9.210;2022-07-12T07:00:58;1.60;;;0.90;;
3231;SDS011;1628;48.884;9.210;2022-07-12T07:03:25;1.00;;;0.90;;
3231;SDS011;1628;48.884;9.210;2022-07-12T07:05:52;0.83;;;0.83;;
3231;SDS011;1628;48.884;9.210;2022-07-12T07:08:20;0.90;;;0.90;;
3231;SDS011;1628;48.884;9.210;2022-07-12T07:10:46;1.17;;;1.17;;
3231;SDS011;1628;48.884;9.210;2022-07-12T07:13:13;1.63;;;0.90;;
3231;SDS011;1628;48.884;9.210;2022-07-12T07:15:40;1.50;;;1.40;;
3231;SDS011;1628;48.884;9.210;2022-07-12T07:18:07;1.07;;;1.07;;
3231;SDS011;1628;48.884;9.210;2022-07-12T07:20:34;1.03;;;1.03;;
3231;SDS011;1628;48.884;9.210;2022-07-12T07:23:01;0.97;;;0.97;;
3231;SDS011;1628;48.884;9.210;2022-07-12T07:25:29;0.87;;;0.87;;
3231;SDS011;1628;48.884;9.210;2022-07-12T07:27:55;0.80;;;0.80;;
3231;SDS011;1628;48.884;9.210;2022-07-12T07:30:22;1.10;;;1.10;;
3231;SDS011;1628;48.884;9.210;2022-07-12T07:33:06;0.83;;;0.83;;
3231;SDS011;1628;48.884;9.210;2022-07-12T07:35:33;0.87;;;0.87;;
3231;SDS011;1628;48.884;9.210;2022-07-12T07:38:00;0.60;;;0.60;;
3231;SDS011;1628;48.884;9.210;2022-07-12T07:40:27;0.53;;;0.53;;
3231;SDS011;1628;48.884;9.210;2022-07-12T07:42:55;1.47;;;0.80;;
3231;SDS011;1628;48.884;9.210;2022-07-12T07:45:21;1.00;;;1.00;;
3231;SDS011;1628;48.884;9.210;2022-07-12T07:47:48;2.97;;;1.00;;
3231;SDS011;1628;48.884;9.210;2022-07-12T07:50:15;2.10;;;0.80;;
3231;SDS011;1628;48.884;9.210;2022-07-12T07:52:42;1.20;;;1.10;;
3231;SDS011;1628;48.884;9.210;2022-07-12T07:55:10;1.07;;;1.07;;
3231;SDS011;1628;48.884;9.210;2022-07-12T07:57:38;2.93;;;0.90;;
3231;SDS011;1628;48.884;9.210;2022-07-12T08:00:05;1.17;;;0.70;;
3231;SDS011;1628;48.884;9.210;2022-07-12T08:02:33;0.83;;;0.83;;
3231;SDS011;1628;48.884;9.210;2022-07-12T08:04:59;0.97;;;0.90;;
3231;SDS011;1628;48.884;9.210;2022-07-12T08:07:26;1.27;;;0.80;;
3231;SDS011;1628;48.884;9.210;2022-07-12T08:09:53;0.90;;;0.90;;
3231;SDS011;1628;48.884;9.210;2022-07-12T08:12:20;1.20;;;0.80;;
3231;SDS011;1628;48.884;9.210;2022-07-12T08:14:48;1.23;;;0.80;;
3231;SDS011;1628;48.884;9.210;2022-07-12T08:17:15;0.47;;;0.47;;
3231;SDS011;1628;48.884;9.210;2022-07-12T08:19:41;1.33;;;0.70;;
3231;SDS011;1628;48.884;9.210;2022-07-12T08:22:08;0.70;;;0.70;;
3231;SDS011;1628;48.884;9.210;2022-07-12T08:24:35;1.13;;;1.10;;
3231;SDS011;1628;48.884;9.210;2022-07-12T08:27:02;1.43;;;0.87;;
3231;SDS011;1628;48.884;9.210;2022-07-12T08:29:30;1.27;;;1.17;;
3231;SDS011;1628;48.884;9.210;2022-07-12T08:31:58;1.07;;;0.97;;
3231;SDS011;1628;48.884;9.210;2022-07-12T08:34:24;4.27;;;1.20;;
3231;SDS011;1628;48.884;9.210;2022-07-12T08:36:51;1.20;;;1.10;;
3231;SDS011;1628;48.884;9.210;2022-07-12T08:39:18;1.43;;;1.07;;
3231;SDS011;1628;48.884;9.210;2022-07-12T08:41:45;1.03;;;1.03;;
3231;SDS011;1628;48.884;9.210;2022-07-12T08:44:11;0.80;;;0.80;;
3231;SDS011;1628;48.884;9.210;2022-07-12T08:46:38;1.30;;;0.80;;
3231;SDS011;1628;48.884;9.210;2022-07-12T08:49:06;1.03;;;1.00;;
3231;SDS011;1628;48.884;9.210;2022-07-12T08:51:33;1.07;;;0.70;;
3231;SDS011;1628;48.884;9.210;2022-07-12T08:54:06;1.67;;;0.90;;
3231;SDS011;1628;48.884;9.210;2022-07-12T08:56:35;1.70;;;0.60;;
3231;SDS011;1628;48.884;9.210;2022-07-12T08:59:13;0.97;;;0.97;;
3231;SDS011;1628;48.884;9.210;2022-07-12T09:01:42;1.00;;;1.00;;
3231;SDS011;1628;48.884;9.210;2022-07-12T09:04:14;1.10;;;0.80;;
3231;SDS011;1628;48.884;9.210;2022-07-12T09:06:42;1.30;;;1.30;;
3231;SDS011;1628;48.884;9.210;2022-07-12T09:09:09;1.73;;;1.00;;
3231;SDS011;1628;48.884;9.210;2022-07-12T09:11:36;2.00;;;1.10;;
3231;SDS011;1628;48.884;9.210;2022-07-12T09:14:03;1.50;;;1.40;;
3231;SDS011;1628;48.884;9.210;2022-07-12T09:16:30;0.70;;;0.70;;
3231;SDS011;1628;48.884;9.210;2022-07-12T09:19:14;0.80;;;0.80;;
3231;SDS011;1628;48.884;9.210;2022-07-12T09:21:48;0.70;;;0.70;;
3231;SDS011;1628;48.884;9.210;2022-07-12T09:24:16;0.63;;;0.63;;
3231;SDS011;1628;48.884;9.210;2022-07-12T09:26:44;0.60;;;0.60;;
3231;SDS011;1628;48.884;9.210;2022-07-12T09:29:12;2.10;;;0.60;;
3231;SDS011;1628;48.884;9.210;2022-07-12T09:31:41;0.70;;;0.70;;
3231;SDS011;1628;48.884;9.210;2022-07-12T09:34:24;0.90;;;0.80;;
3231;SDS011;1628;48.884;9.210;2022-07-12T09:37:09;0.87;;;0.87;;
3231;SDS011;1628;48.884;9.210;2022-07-12T09:39:35;0.93;;;0.93;;
3231;SDS011;1628;48.884;9.210;2022-07-12T09:42:04;0.90;;;0.90;;
3231;SDS011;1628;48.884;9.210;2022-07-12T09:44:34;1.37;;;1.10;;
3231;SDS011;1628;48.884;9.210;2022-07-12T09:47:01;0.83;;;0.83;;
3231;SDS011;1628;48.884;9.210;2022-07-12T09:49:30;0.77;;;0.77;;
3231;SDS011;1628;48.884;9.210;2022-07-12T09:51:57;0.60;;;0.60;;
3231;SDS011;1628;48.884;9.210;2022-07-12T09:54:26;1.33;;;0.60;;
3231;SDS011;1628;48.884;9.210;2022-07-12T09:56:54;0.67;;;0.63;;
3231;SDS011;1628;48.884;9.210;2022-07-12T09:59:24;0.70;;;0.70;;
3231;SDS011;1628;48.884;9.210;2022-07-12T10:01:54;0.60;;;0.60;;
3231;SDS011;1628;48.884;9.210;2022-07-12T10:04:24;0.60;;;0.60;;
3231;SDS011;1628;48.884;9.210;2022-07-12T10:06:57;0.73;;;0.73;;
3231;SDS011;1628;48.884;9.210;2022-07-12T10:09:25;0.57;;;0.57;;
3231;SDS011;1628;48.884;9.210;2022-07-12T10:11:52;0.60;;;0.60;;
3231;SDS011;1628;48.884;9.210;2022-07-12T10:14:21;0.70;;;0.70;;
3231;SDS011;1628;48.884;9.210;2022-07-12T10:16:50;6.13;;;0.60;;
3231;SDS011;1628;48.884;9.210;2022-07-12T10:19:21;0.50;;;0.50;;
3231;SDS011;1628;48.884;9.210;2022-07-12T10:21:50;0.60;;;0.60;;
3231;SDS011;1628;48.884;9.210;2022-07-12T10:27:29;0.70;;;0.70;;
3231;SDS011;1628;48.884;9.210;2022-07-12T10:32:48;0.70;;;0.70;;
3231;SDS011;1628;48.884;9.210;2022-07-12T10:35:18;0.60;;;0.60;;
3231;SDS011;1628;48.884;9.210;2022-07-12T10:40:42;1.73;;;0.53;;
3231;SDS011;1628;48.884;9.210;2022-07-12T10:43:20;0.90;;;0.90;;
3231;SDS011;1628;48.884;9.210;2022-07-12T10:46:13;0.90;;;0.70;;
3231;SDS011;1628;48.884;9.210;2022-07-12T10:48:45;0.70;;;0.70;;
3231;SDS011;1628;48.884;9.210;2022-07-12T10:51:15;0.60;;;0.60;;
3231;SDS011;1628;48.884;9.210;2022-07-12T10:53:46;0.50;;;0.50;;
3231;SDS011;1628;48.884;9.210;2022-07-12T10:56:15;0.60;;;0.60;;
3231;SDS011;1628;48.884;9.210;2022-07-12T10:58:44;0.40;;;0.40;;
3231;SDS011;1628;48.884;9.210;2022-07-12T11:01:13;0.50;;;0.50;;
3231;SDS011;1628;48.884;9.210;2022-07-12T11:03:42;0.70;;;0.70;;
3231;SDS011;1628;48.884;9.210;2022-07-12T11:06:11;2.20;;;0.80;;
3231;SDS011;1628;48.884;9.210;2022-07-12T11:08:50;0.70;;;0.67;;
3231;SDS011;1628;48.884;9.210;2022-07-12T11:11:19;0.50;;;0.50;;
3231;SDS011;1628;48.884;9.210;2022-07-12T11:13:46;0.63;;;0.63;;
3231;SDS011;1628;48.884;9.210;2022-07-12T11:16:13;0.70;;;0.70;;
3231;SDS011;1628;48.884;9.210;2022-07-12T11:18:41;0.60;;;0.60;;
3231;SDS011;1628;48.884;9.210;2022-07-12T11:21:09;0.53;;;0.53;;
3231;SDS011;1628;48.884;9.210;2022-07-12T11:23:36;0.67;;;0.67;;
3231;SDS011;1628;48.884;9.210;2022-07-12T11:26:07;0.60;;;0.60;;
3231;SDS011;1628;48.884;9.210;2022-07-12T11:28:35;0.83;;;0.80;;
3231;SDS011;1628;48.884;9.210;2022-07-12T11:31:02;1.17;;;0.70;;
3231;SDS011;1628;48.884;9.210;2022-07-12T11:33:30;0.73;;;0.73;;
3231;SDS011;1628;48.884;9.210;2022-07-12T11:35:59;0.87;;;0.63;;
3231;SDS011;1628;48.884;9.210;2022-07-12T11:38:26;0.70;;;0.70;;
3231;SDS011;1628;48.884;9.210;2022-07-12T11:40:54;0.70;;;0.57;;
3231;SDS011;1628;48.884;9.210;2022-07-12T11:43:23;2.20;;;0.90;;
3231;SDS011;1628;48.884;9.210;2022-07-12T11:45:51;0.70;;;0.70;;
3231;SDS011;1628;48.884;9.210;2022-07-12T11:48:18;0.60;;;0.60;;
3231;SDS011;1628;48.884;9.210;2022-07-12T11:50:45;0.70;;;0.70;;
3231;SDS011;1628;48.884;9.210;2022-07-12T11:53:16;0.70;;;0.67;;
3231;SDS011;1628;48.884;9.210;2022-07-12T11:55:44;0.60;;;0.60;;
3231;SDS011;1628;48.884;9.210;2022-07-12T11:58:12;0.97;;;0.63;;
3231;SDS011;1628;48.884;9.210;2022-07-12T12:00:40;0.50;;;0.50;;
3231;SDS011;1628;48.884;9.210;2022-07-12T12:03:07;1.27;;;0.80;;
3231;SDS011;1628;48.884;9.210;2022-07-12T12:05:35;0.87;;;0.50;;
3231;SDS011;1628;48.884;9.210;2022-07-12T12:08:02;0.60;;;0.60;;
3231;SDS011;1628;48.884;9.210;2022-07-12T12:10:29;0.70;;;0.70;;
3231;SDS011;1628;48.884;9.210;2022-07-12T12:12:57;0.53;;;0.53;;
3231;SDS011;1628;48.884;9.210;2022-07-12T12:15:25;0.53;;;0.53;;
3231;SDS011;1628;48.884;9.210;2022-07-12T12:17:54;1.17;;;0.70;;
3231;SDS011;1628;48.884;9.210;2022-07-12T12:20:23;0.47;;;0.47;;
3231;SDS011;1628;48.884;9.210;2022-07-12T12:22:52;0.63;;;0.63;;
3231;SDS011;1628;48.884;9.210;2022-07-12T12:25:20;0.90;;;0.70;;
3231;SDS011;1628;48.884;9.210;2022-07-12T12:27:48;0.73;;;0.70;;
3231;SDS011;1628;48.884;9.210;2022-07-12T12:30:16;2.60;;;0.60;;
3231;SDS011;1628;48.884;9.210;2022-07-12T12:32:47;0.50;;;0.50;;
3231;SDS011;1628;48.884;9.210;2022-07-12T12:35:20;0.60;;;0.60;;
3231;SDS011;1628;48.884;9.210;2022-07-12T12:37:48;1.37;;;0.83;;
3231;SDS011;1628;48.884;9.210;2022-07-12T12:40:19;0.50;;;0.50;;
3231;SDS011;1628;48.884;9.210;2022-07-12T12:42:50;0.63;;;0.60;;
3231;SDS011;1628;48.884;9.210;2022-07-12T12:45:18;1.70;;;0.60;;
3231;SDS011;1628;48.884;9.210;2022-07-12T12:47:55;0.73;;;0.73;;
3231;SDS011;1628;48.884;9.210;2022-07-12T12:50:38;0.70;;;0.70;;
3231;SDS011;1628;48.884;9.210;2022-07-12T12:53:06;2.07;;;0.60;;
3231;SDS011;1628;48.884;9.210;2022-07-12T12:55:34;0.70;;;0.70;;
3231;SDS011;1628;48.884;9.210;2022-07-12T12:58:01;1.90;;;0.60;;
3231;SDS011;1628;48.884;9.210;2022-07-12T13:00:28;0.80;;;0.80;;
3231;SDS011;1628;48.884;9.210;2022-07-12T13:02:56;0.67;;;0.63;;
3231;SDS011;1628;48.884;9.210;2022-07-12T13:05:25;1.50;;;0.77;;
3231;SDS011;1628;48.884;9.210;2022-07-12T13:07:54;0.93;;;0.83;;
3231;SDS011;1628;48.884;9.210;2022-07-12T13:10:21;0.77;;;0.60;;
3231;SDS011;1628;48.884;9.210;2022-07-12T13:12:48;1.27;;;0.60;;
3231;SDS011;1628;48.884;9.210;2022-07-12T13:15:15;0.63;;;0.63;;
3231;SDS011;1628;48.884;9.210;2022-07-12T13:17:42;0.50;;;0.50;;
3231;SDS011;1628;48.884;9.210;2022-07-12T13:20:09;0.70;;;0.70;;
3231;SDS011;1628;48.884;9.210;2022-07-12T13:22:38;1.17;;;0.70;;
3231;SDS011;1628;48.884;9.210;2022-07-12T13:25:07;1.27;;;0.80;;
3231;SDS011;1628;48.884;9.210;2022-07-12T13:27:35;2.90;;;0.80;;
3231;SDS011;1628;48.884;9.210;2022-07-12T13:30:02;1.33;;;0.83;;
3231;SDS011;1628;48.884;9.210;2022-07-12T13:32:31;0.67;;;0.63;;
3231;SDS011;1628;48.884;9.210;2022-07-12T13:34:57;6.20;;;1.00;;
3231;SDS011;1628;48.884;9.210;2022-07-12T13:37:25;1.03;;;0.80;;
3231;SDS011;1628;48.884;9.210;2022-07-12T13:39:52;3.40;;;0.80;;
3231;SDS011;1628;48.884;9.210;2022-07-12T13:42:38;0.70;;;0.70;;
3231;SDS011;1628;48.884;9.210;2022-07-12T13:45:06;2.70;;;0.60;;
3231;SDS011;1628;48.884;9.210;2022-07-12T13:47:36;0.80;;;0.80;;
3231;SDS011;1628;48.884;9.210;2022-07-12T13:50:03;0.50;;;0.50;;
3231;SDS011;1628;48.884;9.210;2022-07-12T13:52:31;0.70;;;0.60;;
3231;SDS011;1628;48.884;9.210;2022-07-12T13:54:58;0.60;;;0.60;;
3231;SDS011;1628;48.884;9.210;2022-07-12T13:57:25;0.80;;;0.77;;
3231;SDS011;1628;48.884;9.210;2022-07-12T13:59:53;0.70;;;0.70;;
3231;SDS011;1628;48.884;9.210;2022-07-12T14:02:20;1.23;;;0.80;;
3231;SDS011;1628;48.884;9.210;2022-07-12T14:04:48;1.77;;;0.77;;
3231;SDS011;1628;48.884;9.210;2022-07-12T14:07:14;0.60;;;0.60;;
3231;SDS011;1628;48.884;9.210;2022-07-12T14:09:41;0.80;;;0.80;;
3231;SDS011;1628;48.884;9.210;2022-07-12T14:12:08;1.77;;;0.80;;
3231;SDS011;1628;48.884;9.210;2022-07-12T14:14:35;0.70;;;0.70;;
3231;SDS011;1628;48.884;9.210;2022-07-12T14:17:21;0.80;;;0.80;;
3231;SDS011;1628;48.884;9.210;2022-07-12T14:19:48;0.60;;;0.60;;
3231;SDS011;1628;48.884;9.210;2022-07-12T14:22:14;1.67;;;0.80;;
3231;SDS011;1628;48.884;9.210;2022-07-12T14:24:41;7.90;;;0.80;;
3231;SDS011;1628;48.884;9.210;2022-07-12T14:27:09;0.60;;;0.60;;
3231;SDS011;1628;48.884;9.210;2022-07-12T14:29:36;1.43;;;0.70;;
3231;SDS011;1628;48.884;9.210;2022-07-12T14:32:02;0.70;;;0.70;;
3231;SDS011;1628;48.884;9.210;2022-07-12T14:34:31;2.63;;;0.60;;
3231;SDS011;1628;48.884;9.210;2022-07-12T14:36:58;0.63;;;0.63;;
3231;SDS011;1628;48.884;9.210;2022-07-12T14:39:25;0.80;;;0.80;;
3231;SDS011;1628;48.884;9.210;2022-07-12T14:41:52;0.70;;;0.70;;
3231;SDS011;1628;48.884;9.210;2022-07-12T14:44:19;0.80;;;0.70;;
3231;SDS011;1628;48.884;9.210;2022-07-12T14:46:46;0.60;;;0.60;;
3231;SDS011;1628;48.884;9.210;2022-07-12T14:49:13;1.53;;;0.73;;
3231;SDS011;1628;48.884;9.210;2022-07-12T14:51:41;2.80;;;0.77;;
3231;SDS011;1628;48.884;9.210;2022-07-12T14:54:08;0.60;;;0.60;;
3231;SDS011;1628;48.884;9.210;2022-07-12T14:56:34;0.70;;;0.70;;
3231;SDS011;1628;48.884;9.210;2022-07-12T14:59:01;0.70;;;0.70;;
3231;SDS011;1628;48.884;9.210;2022-07-12T15:01:28;3.07;;;0.80;;
3231;SDS011;1628;48.884;9.210;2022-07-12T15:03:55;0.60;;;0.60;;
3231;SDS011;1628;48.884;9.210;2022-07-12T15:06:21;1.53;;;0.80;;
3231;SDS011;1628;48.884;9.210;2022-07-12T15:08:52;0.67;;;0.67;;
3231;SDS011;1628;48.884;9.210;2022-07-12T15:11:19;0.70;;;0.70;;
3231;SDS011;1628;48.884;9.210;2022-07-12T15:13:46;0.70;;;0.70;;
3231;SDS011;1628;48.884;9.210;2022-07-12T15:16:13;0.73;;;0.73;;
3231;SDS011;1628;48.884;9.210;2022-07-12T15:18:40;1.60;;;0.80;;
3231;SDS011;1628;48.884;9.210;2022-07-12T15:21:07;0.97;;;0.70;;
3231;SDS011;1628;48.884;9.210;2022-07-12T15:23:33;0.80;;;0.80;;
3231;SDS011;1628;48.884;9.210;2022-07-12T15:26:02;0.80;;;0.80;;
3231;SDS011;1628;48.884;9.210;2022-07-12T15:28:28;0.93;;;0.93;;
3231;SDS011;1628;48.884;9.210;2022-07-12T15:30:55;0.73;;;0.73;;
3231;SDS011;1628;48.884;9.210;2022-07-12T15:33:22;0.60;;;0.60;;
3231;SDS011;1628;48.884;9.210;2022-07-12T15:35:50;0.73;;;0.73;;
3231;SDS011;1628;48.884;9.210;2022-07-12T15:38:17;1.03;;;0.73;;
3231;SDS011;1628;48.884;9.210;2022-07-12T15:40:43;0.60;;;0.60;;
3231;SDS011;1628;48.884;9.210;2022-07-12T15:43:11;0.77;;;0.77;;
3231;SDS011;1628;48.884;9.210;2022-07-12T15:45:38;0.60;;;0.60;;
3231;SDS011;1628;48.884;9.210;2022-07-12T15:48:05;0.70;;;0.70;;
3231;SDS011;1628;48.884;9.210;2022-07-12T15:50:32;1.10;;;0.77;;
3231;SDS011;1628;48.884;9.210;2022-07-12T15:52:59;1.40;;;0.60;;
3231;SDS011;1628;48.884;9.210;2022-07-12T15:55:44;0.67;;;0.67;;
3231;SDS011;1628;48.884;9.210;2022-07-12T15:58:12;0.53;;;0.53;;
3231;SDS011;1628;48.884;9.210;2022-07-12T16:00:38;0.80;;;0.80;;
3231;SDS011;1628;48.884;9.210;2022-07-12T16:03:05;0.50;;;0.50;;
3231;SDS011;1628;48.884;9.210;2022-07-12T16:05:32;0.70;;;0.70;;
3231;SDS011;1628;48.884;9.210;2022-07-12T16:08:00;0.70;;;0.70;;
3231;SDS011;1628;48.884;9.210;2022-07-12T16:10:27;0.73;;;0.73;;
3231;SDS011;1628;48.884;9.210;2022-07-12T16:12:54;0.63;;;0.63;;
3231;SDS011;1628;48.884;9.210;2022-07-12T16:15:22;1.17;;;0.93;;
3231;SDS011;1628;48.884;9.210;2022-07-12T16:17:49;0.70;;;0.70;;
3231;SDS011;1628;48.884;9.210;2022-07-12T16:20:16;0.60;;;0.60;;
3231;SDS011;1628;48.884;9.210;2022-07-12T16:22:43;2.83;;;0.70;;
3231;SDS011;1628;48.884;9.210;2022-07-12T16:25:10;1.47;;;0.70;;
3231;SDS011;1628;48.884;9.210;2022-07-12T16:27:37;2.00;;;0.70;;
3231;SDS011;1628;48.884;9.210;2022-07-12T16:30:04;2.33;;;0.90;;
3231;SDS011;1628;48.884;9.210;2022-07-12T16:32:34;1.67;;;0.90;;
3231;SDS011;1628;48.884;9.210;2022-07-12T16:35:01;0.97;;;0.70;;
3231;SDS011;1628;48.884;9.210;2022-07-12T16:37:28;3.80;;;0.90;;
3231;SDS011;1628;48.884;9.210;2022-07-12T16:39:55;1.60;;;0.70;;
3231;SDS011;1628;48.884;9.210;2022-07-12T16:42:22;1.10;;;1.00;;
3231;SDS011;1628;48.884;9.210;2022-07-12T16:44:48;0.70;;;0.70;;
3231;SDS011;1628;48.884;9.210;2022-07-12T16:47:15;0.70;;;0.60;;
3231;SDS011;1628;48.884;9.210;2022-07-12T16:49:44;0.60;;;0.50;;
3231;SDS011;1628;48.884;9.210;2022-07-12T16:52:11;1.17;;;0.93;;
3231;SDS011;1628;48.884;9.210;2022-07-12T16:54:37;1.33;;;0.70;;
3231;SDS011;1628;48.884;9.210;2022-07-12T16:57:04;0.70;;;0.70;;
3231;SDS011;1628;48.884;9.210;2022-07-12T16:59:31;0.80;;;0.80;;
3231;SDS011;1628;48.884;9.210;2022-07-12T17:01:58;2.50;;;0.90;;
3231;SDS011;1628;48.884;9.210;2022-07-12T17:04:25;1.90;;;1.03;;
3231;SDS011;1628;48.884;9.210;2022-07-12T17:06:53;1.13;;;0.87;;
3231;SDS011;1628;48.884;9.210;2022-07-12T17:09:20;1.17;;;1.07;;
3231;SDS011;1628;48.884;9.210;2022-07-12T17:11:47;0.60;;;0.60;;
3231;SDS011;1628;48.884;9.210;2022-07-12T17:14:14;3.33;;;0.67;;
3231;SDS011;1628;48.884;9.210;2022-07-12T17:16:41;0.73;;;0.70;;
3231;SDS011;1628;48.884;9.210;2022-07-12T17:19:07;2.30;;;0.70;;
3231;SDS011;1628;48.884;9.210;2022-07-12T17:21:34;1.90;;;1.10;;
3231;SDS011;1628;48.884;9.210;2022-07-12T17:24:04;1.00;;;0.70;;
3231;SDS011;1628;48.884;9.210;2022-07-12T17:26:31;0.90;;;0.80;;
3231;SDS011;1628;48.884;9.210;2022-07-12T17:28:57;0.93;;;0.90;;
3231;SDS011;1628;48.884;9.210;2022-07-12T17:31:24;0.90;;;0.90;;
3231;SDS011;1628;48.884;9.210;2022-07-12T17:33:51;1.00;;;1.00;;
3231;SDS011;1628;48.884;9.210;2022-07-12T17:36:18;0.70;;;0.70;;
3231;SDS011;1628;48.884;9.210;2022-07-12T17:38:45;0.63;;;0.63;;
3231;SDS011;1628;48.884;9.210;2022-07-12T17:41:13;0.90;;;0.90;;
3231;SDS011;1628;48.884;9.210;2022-07-12T17:43:40;1.60;;;0.93;;
3231;SDS011;1628;48.884;9.210;2022-07-12T17:46:07;1.00;;;0.90;;
3231;SDS011;1628;48.884;9.210;2022-07-12T17:48:34;1.07;;;1.00;;
3231;SDS011;1628;48.884;9.210;2022-07-12T17:51:01;0.87;;;0.87;;
3231;SDS011;1628;48.884;9.210;2022-07-12T17:53:28;0.80;;;0.80;;
3231;SDS011;1628;48.884;9.210;2022-07-12T17:55:54;1.07;;;0.90;;
3231;SDS011;1628;48.884;9.210;2022-07-12T17:58:23;1.10;;;1.10;;
3231;SDS011;1628;48.884;9.210;2022-07-12T18:01:05;1.43;;;0.80;;
3231;SDS011;1628;48.884;9.210;2022-07-12T18:03:33;0.80;;;0.80;;
3231;SDS011;1628;48.884;9.210;2022-07-12T18:06:00;0.80;;;0.80;;
3231;SDS011;1628;48.884;9.210;2022-07-12T18:08:28;1.10;;;1.00;;
3231;SDS011;1628;48.884;9.210;2022-07-12T18:10:55;1.20;;;1.20;;
3231;SDS011;1628;48.884;9.210;2022-07-12T18:13:24;1.27;;;0.87;;
3231;SDS011;1628;48.884;9.210;2022-07-12T18:16:08;6.80;;;1.27;;
3231;SDS011;1628;48.884;9.210;2022-07-12T18:18:35;1.50;;;0.90;;
3231;SDS011;1628;48.884;9.210;2022-07-12T18:21:02;1.50;;;0.97;;
3231;SDS011;1628;48.884;9.210;2022-07-12T18:23:30;1.57;;;0.80;;
3231;SDS011;1628;48.884;9.210;2022-07-12T18:25:57;1.00;;;0.90;;
3231;SDS011;1628;48.884;9.210;2022-07-12T18:28:25;1.90;;;1.20;;
3231;SDS011;1628;48.884;9.210;2022-07-12T18:30:53;1.20;;;1.20;;
3231;SDS011;1628;48.884;9.210;2022-07-12T18:33:19;0.70;;;0.70;;
3231;SDS011;1628;48.884;9.210;2022-07-12T18:35:46;1.33;;;1.00;;
3231;SDS011;1628;48.884;9.210;2022-07-12T18:38:13;1.43;;;0.77;;
3231;SDS011;1628;48.884;9.210;2022-07-12T18:40:39;1.00;;;1.00;;
3231;SDS011;1628;48.884;9.210;2022-07-12T18:43:06;2.93;;;1.00;;
3231;SDS011;1628;48.884;9.210;2022-07-12T18:45:34;1.23;;;1.23;;
3231;SDS011;1628;48.884;9.210;2022-07-12T18:48:01;0.90;;;0.90;;
3231;SDS011;1628;48.884;9.210;2022-07-12T18:50:29;3.77;;;1.10;;
3231;SDS011;1628;48.884;9.210;2022-07-12T18:52:56;1.43;;;1.00;;
3231;SDS011;1628;48.884;9.210;2022-07-12T18:55:23;1.33;;;1.07;;
3231;SDS011;1628;48.884;9.210;2022-07-12T18:57:50;1.07;;;0.90;;
3231;SDS011;1628;48.884;9.210;2022-07-12T19:00:17;0.93;;;0.93;;
3231;SDS011;1628;48.884;9.210;2022-07-12T19:02:45;2.20;;;1.53;;
3231;SDS011;1628;48.884;9.210;2022-07-12T19:05:12;1.00;;;0.90;;
3231;SDS011;1628;48.884;9.210;2022-07-12T19:07:39;1.13;;;1.07;;
3231;SDS011;1628;48.884;9.210;2022-07-12T19:10:06;1.70;;;1.13;;
3231;SDS011;1628;48.884;9.210;2022-07-12T19:12:33;0.90;;;0.90;;
3231;SDS011;1628;48.884;9.210;2022-07-12T19:15:01;1.10;;;1.10;;
3231;SDS011;1628;48.884;9.210;2022-07-12T19:17:28;1.17;;;1.17;;
3231;SDS011;1628;48.884;9.210;2022-07-12T19:19:56;1.30;;;1.20;;
3231;SDS011;1628;48.884;9.210;2022-07-12T19:22:23;2.20;;;0.97;;
3231;SDS011;1628;48.884;9.210;2022-07-12T19:24:52;2.07;;;1.97;;
3231;SDS011;1628;48.884;9.210;2022-07-12T19:27:19;1.00;;;1.00;;
3231;SDS011;1628;48.884;9.210;2022-07-12T19:29:46;0.87;;;0.87;;